Latest Weather Observations for PORTABLE QFRK (Ravenshoe)

IDQ60801

Issued at 2:52 pm EST Tuesday 19 June 2018 (issued every 10 minutes, with the page automatically refreshed every 10 minutes)

About weather observations | Map of weather stations | Latest weather observations for QLD | Other Formats
Station Details ID: 250075 Name: PORTABLE QFRK (RAVENSHOE) Lat: -17.61 Lon: 145.49 Height: 922.0 m
Data from the previous 72 hours. | See also: Recent months for locations in Queensland
Date/Time
EST
Temp
°C
App
Temp
°C
Dew
Point
°C
Rel
Hum
%
Delta-T
°C
Wind Press
QNH
hPa
Press
MSL
hPa
Rain since
9am
mm
Dir  Spd
km/h
Gust
km/h
Spd
kts
Gust
kts
19/02:40pm 18.7 15.4 4.5 39 7.1 ENE 11 17 6 9 - - 0.0
19/02:30pm 18.2 14.3 3.6 38 7.2 ENE 13 15 7 8 - - 0.0
19/02:20pm 18.3 14.7 4.9 41 6.8 ENE 13 19 7 10 - - 0.0
19/02:10pm 18.3 14.7 4.8 41 6.8 ENE 13 17 7 9 - - 0.0
19/02:00pm 18.3 15.1 5.1 41 6.7 ENE 11 15 6 8 - - 0.0
19/01:50pm 18.4 14.8 5.0 41 6.8 ENE 13 17 7 9 - - 0.0
19/01:40pm 18.0 13.9 4.2 40 6.9 ENE 15 17 8 9 - - 0.0
19/01:30pm 18.0 14.3 4.4 40 6.8 ENE 13 17 7 9 - - 0.0
19/01:20pm 18.2 14.5 4.6 40 6.8 E 13 15 7 8 - - 0.0
19/01:10pm 18.0 14.2 3.9 39 7.0 E 13 17 7 9 - - 0.0
19/01:00pm 17.4 13.3 4.1 41 6.6 E 15 19 8 10 - - 0.0
19/12:50pm 17.9 14.1 3.7 39 7.0 E 13 19 7 10 - - 0.0
19/12:40pm 18.0 14.1 3.4 38 7.1 ENE 13 17 7 9 - - 0.0
19/12:30pm 17.6 14.2 3.8 40 6.8 E 11 19 6 10 - - 0.0
19/12:20pm 17.5 13.8 2.3 36 7.3 E 11 19 6 10 - - 0.0
19/12:10pm 17.2 13.0 4.0 41 6.5 E 15 19 8 10 - - 0.0
19/12:00pm 17.3 13.2 2.4 37 7.1 E 13 17 7 9 - - 0.0
19/11:50am 17.3 13.6 2.3 36 7.1 E 11 15 6 8 - - 0.0
19/11:40am 17.2 13.1 2.3 36 7.1 ENE 13 17 7 9 - - 0.0
19/11:30am 16.9 12.9 3.0 39 6.7 E 13 17 7 9 - - 0.0
19/11:20am 17.1 13.8 2.6 38 6.9 E 9 11 5 6 - - 0.0
19/11:10am 16.5 13.3 3.1 40 6.4 ESE 9 13 5 7 - - 0.0
19/11:00am 16.1 12.7 1.9 38 6.6 ESE 9 11 5 6 - - 0.0
19/10:50am 16.2 13.4 3.2 41 6.3 ESE 7 13 4 7 - - 0.0
19/10:40am 15.7 12.1 3.2 43 6.0 E 11 15 6 8 - - 0.0
19/10:30am 15.5 11.3 1.8 39 6.4 E 13 19 7 10 - - 0.0
19/10:20am 15.1 11.0 2.3 42 6.0 E 13 17 7 9 - - 0.0
19/10:10am 14.9 10.7 1.8 41 6.1 ESE 13 19 7 10 - - 0.0
19/10:00am 14.9 11.4 1.5 40 6.2 ESE 9 11 5 6 - - 0.0
19/09:50am 14.8 10.9 1.2 39 6.2 ESE 11 15 6 8 - - 0.0
19/09:40am 14.6 11.2 1.9 42 5.9 E 9 13 5 7 - - 0.0
19/09:30am 14.0 9.4 1.6 43 5.7 E 15 19 8 10 - - 0.0
19/09:20am 13.6 8.1 0.8 41 5.7 E 19 22 10 12 - - 0.0
19/09:10am 13.3 8.0 1.8 45 5.3 E 19 22 10 12 - - 0.0
19/09:00am 13.0 7.6 1.5 45 5.2 E 19 22 10 12 - - 0.0
19/08:50am 12.8 7.9 1.9 47 5.0 E 17 19 9 10 - - 0.0
19/08:40am 12.5 7.9 1.8 48 4.9 E 15 17 8 9 - - 0.0
19/08:30am 12.0 7.1 1.9 50 4.6 E 17 19 9 10 - - 0.0
19/08:20am 11.5 6.9 1.6 50 4.4 E 15 17 8 9 - - 0.0
19/08:10am 11.3 7.6 2.2 53 4.1 E 11 15 6 8 - - 0.0
19/08:00am 10.6 7.6 2.2 56 3.8 E 7 9 4 5 - - 0.0
19/07:50am 10.3 6.6 2.3 57 3.6 E 11 13 6 7 - - 0.0
19/07:40am 10.0 5.9 2.3 59 3.5 ENE 13 15 7 8 - - 0.0
19/07:30am 9.5 5.4 2.1 60 3.3 ENE 13 15 7 8 - - 0.0
19/07:20am 9.1 5.3 1.7 60 3.2 ENE 11 13 6 7 - - 0.0
19/07:10am 8.8 5.0 1.6 60 3.1 E 11 15 6 8 - - 0.0
19/07:00am 8.7 5.2 1.3 59 3.2 E 9 13 5 7 - - 0.0
19/06:50am 8.8 5.2 0.8 57 3.4 E 9 11 5 6 - - 0.0
19/06:40am 9.1 5.1 0.7 55 3.6 E 11 15 6 8 - - 0.0
19/06:30am 9.2 4.9 0.8 55 3.6 E 13 17 7 9 - - 0.0
19/06:20am 9.1 5.2 1.0 57 3.5 E 11 15 6 8 - - 0.0
19/06:10am 9.2 5.3 0.9 56 3.6 E 11 15 6 8 - - 0.0
19/06:00am 9.3 5.5 2.0 60 3.2 E 11 15 6 8 - - 0.0
19/05:50am 9.5 5.7 1.9 59 3.4 E 11 15 6 8 - - 0.0
19/05:40am 9.4 6.1 2.3 61 3.2 E 9 13 5 7 - - 0.0
19/05:30am 9.3 6.5 3.3 66 2.7 E 7 11 4 6 - - 0.0
19/05:20am 9.3 6.8 3.6 67 2.6 E 6 9 3 5 - - 0.0
19/05:10am 9.4 6.7 3.6 67 2.7 ENE 7 11 4 6 - - 0.0
19/05:00am 9.7 7.0 3.6 66 2.8 ENE 7 13 4 7 - - 0.0
19/04:50am 9.9 6.8 3.7 65 2.9 ENE 9 11 5 6 - - 0.0
19/04:40am 10.0 7.3 3.8 65 2.9 E 7 11 4 6 - - 0.0
19/04:30am 10.1 7.0 3.7 64 3.0 E 9 11 5 6 - - 0.0
19/04:20am 10.2 7.1 3.8 64 3.0 E 9 13 5 7 - - 0.0
19/04:10am 10.2 7.1 3.5 63 3.1 E 9 9 5 5 - - 0.0
19/04:00am 10.3 7.6 3.9 64 3.0 E 7 11 4 6 - - 0.0
19/03:50am 10.7 7.3 4.2 64 3.1 E 11 15 6 8 - - 0.0
19/03:40am 10.8 7.5 4.3 64 3.1 E 11 15 6 8 - - 0.0
19/03:30am 10.9 7.8 5.7 70 2.5 E 11 13 6 7 - - 0.0
19/03:20am 11.1 8.2 6.3 72 2.4 E 11 15 6 8 - - 0.0
19/03:10am 11.1 8.2 6.3 72 2.4 E 11 13 6 7 - - 0.0
19/03:00am 11.0 8.4 6.3 73 2.3 E 9 13 5 7 - - 0.0
19/02:50am 11.3 8.8 6.5 72 2.4 E 9 15 5 8 - - 0.0
19/02:40am 11.3 8.9 7.1 75 2.1 E 9 15 5 8 - - 0.0
19/02:30am 11.4 9.6 7.9 79 1.8 ENE 7 11 4 6 - - 0.0
19/02:20am 11.7 8.8 8.1 78 1.9 E 13 15 7 8 - - 0.0
19/02:10am 11.5 9.3 7.9 78 1.8 E 9 17 5 9 - - 0.0
19/02:00am 11.6 8.6 7.8 77 1.9 E 13 17 7 9 - - 0.0
19/01:50am 11.4 8.7 7.5 77 2.0 E 11 17 6 9 - - 0.0
19/01:40am 11.4 9.0 7.1 75 2.2 ENE 9 13 5 7 - - 0.0
19/01:30am 11.4 9.0 6.9 74 2.3 ENE 9 13 5 7 - - 0.0
19/01:20am 11.4 8.5 6.7 73 2.3 ENE 11 15 6 8 - - 0.0
19/01:10am 11.4 8.5 6.6 72 2.4 E 11 15 6 8 - - 0.0
19/01:00am 11.3 8.5 7.1 75 2.1 ENE 11 15 6 8 - - 0.0
19/12:50am 11.2 8.9 7.4 77 1.9 ENE 9 15 5 8 - - 0.0
19/12:40am 11.2 8.5 7.4 77 1.9 ENE 11 13 6 7 - - 0.0
19/12:30am 11.3 9.0 7.4 77 2.0 ENE 9 13 5 7 - - 0.0
19/12:20am 11.3 8.9 7.2 76 2.1 ENE 9 15 5 8 - - 0.0
19/12:10am 11.3 8.2 7.1 75 2.1 E 13 19 7 10 - - 0.0
19/12:00am 11.2 8.0 7.0 75 2.1 ENE 13 17 7 9 - - 0.0
 
Date/Time
EST
Temp
°C
App
Temp
°C
Dew
Point
°C
Rel
Hum
%
Delta-T
°C
Wind Press
QNH
hPa
Press
MSL
hPa
Rain since
9am
mm
Dir  Spd
km/h
Gust
km/h
Spd
kts
Gust
kts
18/11:50pm 11.3 8.5 7.0 75 2.2 ENE 11 13 6 7 - - 0.0
18/11:40pm 11.3 8.9 7.2 76 2.1 ENE 9 13 5 7 - - 0.0
18/11:30pm 11.1 8.7 7.2 77 2.0 ENE 9 11 5 6 - - 0.0
18/11:20pm 11.1 8.7 7.0 76 2.1 ENE 9 11 5 6 - - 0.0
18/11:10pm 11.0 8.6 7.1 77 2.0 ENE 9 11 5 6 - - 0.0
18/11:00pm 11.1 8.4 7.2 77 2.0 ENE 11 13 6 7 - - 0.0
18/10:50pm 10.9 8.6 7.3 78 1.8 ENE 9 11 5 6 - - 0.0
18/10:40pm 11.2 8.5 7.5 78 1.9 E 11 13 6 7 - - 0.0
18/10:30pm 11.3 9.0 7.5 77 1.9 E 9 11 5 6 - - 0.0
18/10:20pm 11.1 8.8 7.4 78 1.9 E 9 13 5 7 - - 0.0
18/10:10pm 11.0 9.1 7.6 79 1.7 E 7 9 4 5 - - 0.0
18/10:00pm 10.9 9.0 7.6 80 1.7 E 7 9 4 5 - - 0.0
18/09:50pm 10.7 8.8 7.5 80 1.6 E 7 7 4 4 - - 0.0
18/09:40pm 10.7 9.0 7.7 82 1.5 ENE 6 9 3 5 - - 0.0
18/09:30pm 11.0 8.8 7.7 80 1.7 ENE 9 9 5 5 - - 0.0
18/09:20pm 10.9 9.1 7.8 81 1.6 ENE 7 9 4 5 - - 0.0
18/09:10pm 11.1 9.3 8.0 81 1.6 ENE 7 7 4 4 - - 0.0
18/09:00pm 11.5 9.7 8.1 79 1.8 ENE 7 9 4 5 - - 0.0
18/08:50pm 11.5 9.7 8.1 79 1.8 E 7 7 4 4 - - 0.0
18/08:40pm 11.6 9.5 8.3 80 1.7 ENE 9 11 5 6 - - 0.0
18/08:30pm 11.7 9.6 8.4 80 1.7 ENE 9 11 5 6 - - 0.0
18/08:20pm 11.7 9.6 8.4 80 1.7 ENE 9 11 5 6 - - 0.0
18/08:10pm 11.8 10.1 8.4 80 1.8 ENE 7 7 4 4 - - 0.0
18/08:00pm 11.7 10.0 8.4 80 1.7 E 7 9 4 5 - - 0.0
18/07:50pm 11.7 10.0 8.5 81 1.7 E 7 9 4 5 - - 0.0
18/07:40pm 11.9 10.3 8.9 82 1.6 ENE 7 9 4 5 - - 0.0
18/07:30pm 12.2 10.2 8.8 80 1.8 E 9 11 5 6 - - 0.0
18/07:20pm 12.4 10.8 8.7 78 1.9 ENE 7 9 4 5 - - 0.0
18/07:10pm 12.3 10.8 8.5 77 2.0 ENE 6 7 3 4 - - 0.0
18/07:00pm 12.5 10.8 8.4 76 2.1 ENE 7 11 4 6 - - 0.0
18/06:50pm 12.7 10.6 8.4 75 2.2 ENE 9 11 5 6 - - 0.0
18/06:40pm 13.2 11.1 8.4 72 2.5 E 9 13 5 7 - - 0.0
18/06:30pm 13.5 11.4 8.4 71 2.7 E 9 11 5 6 - - 0.0
18/06:20pm 13.9 11.5 8.6 70 2.8 E 11 13 6 7 - - 0.0
18/06:10pm 14.3 12.1 9.3 72 2.7 E 11 13 6 7 - - 0.0
18/06:00pm 14.6 12.8 9.6 72 2.7 E 9 11 5 6 - - 0.0
18/05:50pm 15.1 13.5 10.3 73 2.6 E 9 11 5 6 - - 0.0
18/05:40pm 15.9 14.0 10.5 70 3.0 E 11 13 6 7 - - 0.0
18/05:30pm 16.6 15.1 10.6 67 3.3 E 9 13 5 7 - - 0.0
18/05:20pm 17.2 15.8 10.8 66 3.6 E 9 11 5 6 - - 0.0
18/05:10pm 17.7 15.9 11.0 65 3.8 E 11 13 6 7 - - 0.0
18/05:00pm 18.2 16.4 11.0 63 4.1 E 11 13 6 7 - - 0.0
18/04:50pm 18.6 17.2 10.8 60 4.4 E 9 13 5 7 - - 0.0
18/04:40pm 18.9 17.0 10.6 58 4.7 E 11 15 6 8 - - 0.0
18/04:30pm 19.2 17.4 11.0 59 4.7 E 11 13 6 7 - - 0.0
18/04:20pm 19.6 18.2 11.0 57 4.9 E 9 13 5 7 - - 0.0
18/04:10pm 19.8 17.9 10.6 55 5.2 E 11 11 6 6 - - 0.0
18/04:00pm 19.9 18.5 10.8 55 5.2 E 9 13 5 7 - - 0.0
18/03:50pm 20.1 18.6 10.5 54 5.4 E 9 11 5 6 - - 0.0
18/03:40pm 20.0 18.6 10.8 55 5.2 E 9 13 5 7 - - 0.0
18/03:30pm 20.0 18.4 10.3 53 5.5 ENE 9 13 5 7 - - 0.0
18/03:20pm 20.5 19.1 10.8 53 5.5 ENE 9 11 5 6 - - 0.0
18/03:10pm 20.2 18.5 11.1 56 5.2 E 11 15 6 8 - - 0.0
18/03:00pm 20.4 18.9 10.6 53 5.6 ENE 9 13 5 7 - - 0.0
18/02:50pm 20.7 18.9 10.9 53 5.6 ENE 11 13 6 7 - - 0.0
18/02:40pm 20.4 18.4 10.3 52 5.7 ENE 11 17 6 9 - - 0.0
18/02:30pm 20.5 18.5 10.2 51 5.8 ENE 11 15 6 8 - - 0.0
18/02:20pm 20.1 18.1 10.2 53 5.6 ENE 11 15 6 8 - - 0.0
18/02:10pm 20.1 18.1 10.0 52 5.7 ENE 11 15 6 8 - - 0.0
18/02:00pm 20.4 18.3 9.6 50 6.0 ENE 11 15 6 8 - - 0.0
18/01:50pm 20.4 18.1 9.0 48 6.3 ENE 11 17 6 9 - - 0.0
18/01:40pm 20.3 18.0 8.9 48 6.3 E 11 15 6 8 - - 0.0
18/01:30pm 20.0 16.8 8.5 47 6.3 ENE 15 17 8 9 - - 0.0
18/01:20pm 20.2 17.4 8.7 47 6.3 ENE 13 17 7 9 - - 0.0
18/01:10pm 19.8 17.4 8.5 48 6.2 ENE 11 15 6 8 - - 0.0
18/01:00pm 18.9 15.9 7.9 49 5.9 E 13 17 7 9 - - 0.0
18/12:50pm 19.6 16.8 8.6 49 6.0 ENE 13 17 7 9 - - 0.0
18/12:40pm 20.4 18.2 9.3 49 6.2 ENE 11 15 6 8 - - 0.0
18/12:30pm 20.4 17.4 7.9 44 6.8 ENE 13 15 7 8 - - 0.0
18/12:20pm 19.9 16.9 7.8 45 6.5 E 13 17 7 9 - - 0.0
18/12:10pm 20.1 17.1 7.5 44 6.8 ENE 13 17 7 9 - - 0.0
18/12:00pm 19.8 16.8 7.9 46 6.4 ENE 13 17 7 9 - - 0.0
18/11:50am 20.1 17.5 7.8 45 6.6 ENE 11 19 6 10 - - 0.0
18/11:40am 19.7 16.9 6.9 43 6.8 ENE 11 17 6 9 - - 0.0
18/11:30am 19.3 16.2 7.3 45 6.4 ENE 13 17 7 9 - - 0.0
18/11:20am 19.4 16.1 6.5 43 6.8 E 13 15 7 8 - - 0.0
18/11:10am 19.5 16.7 6.8 43 6.7 ENE 11 15 6 8 - - 0.0
18/11:00am 19.4 16.4 6.1 42 6.9 E 11 15 6 8 - - 0.0
18/10:50am 19.2 17.0 6.1 42 6.8 SE 7 11 4 6 - - 0.0
18/10:40am 18.6 15.4 4.9 40 6.9 E 11 17 6 9 - - 0.0
18/10:30am 18.0 14.6 5.7 44 6.3 E 13 15 7 8 - - 0.0
18/10:20am 17.8 14.6 5.1 43 6.4 E 11 15 6 8 - - 0.0
18/10:10am 17.8 15.4 5.2 43 6.4 ESE 7 11 4 6 - - 0.0
18/10:00am 17.2 14.8 5.3 45 6.0 ESE 7 9 4 5 - - 0.0
18/09:50am 16.4 14.1 5.8 49 5.4 ESE 7 9 4 5 - - 0.0
18/09:40am 16.2 14.1 6.0 51 5.2 SE 6 9 3 5 - - 0.0
18/09:30am 14.4 12.8 6.2 58 4.1 SSE 4 6 2 3 - - 0.0
18/09:20am 14.3 12.6 5.9 57 4.2 SE 4 6 2 3 - - 0.0
18/09:10am 14.1 12.4 5.8 57 4.1 ESE 4 7 2 4 - - 0.0
18/09:00am 13.7 12.6 6.9 63 3.5 SE 2 4 1 2 - - 0.0
18/08:50am 13.1 12.4 8.4 73 2.5 SSW 2 4 1 2 - - 0.0
18/08:40am 12.7 12.0 8.6 76 2.2 SW 2 6 1 3 - - 0.0
18/08:30am 12.4 12.0 8.3 76 2.1 CALM 0 0 0 0 - - 0.0
18/08:20am 11.9 11.4 7.8 76 2.1 CALM 0 2 0 1 - - 0.0
18/08:10am 11.4 11.0 8.2 81 1.7 CALM 0 0 0 0 - - 0.0
18/08:00am 11.0 10.3 8.7 86 1.2 NE 2 4 1 2 - - 0.0
18/07:50am 10.6 10.3 8.5 87 1.1 CALM 0 2 0 1 - - 0.0
18/07:40am 10.4 10.1 8.6 89 0.9 CALM 0 0 0 0 - - 0.0
18/07:30am 10.2 9.8 8.4 89 0.9 CALM 0 2 0 1 - - 0.0
18/07:20am 10.0 9.2 8.1 88 1.0 NE 2 2 1 1 - - 0.0
18/07:00am 10.0 9.1 7.7 86 1.2 ENE 2 4 1 2 - - 0.0
18/06:50am 10.1 9.5 7.5 84 1.3 CALM 0 2 0 1 - - 0.0
18/06:40am 10.0 9.4 7.4 84 1.3 CALM 0 2 0 1 - - 0.0
18/06:30am 10.1 8.7 7.4 83 1.4 NE 4 6 2 3 - - 0.0
18/06:20am 10.5 9.6 7.6 82 1.5 N 2 4 1 2 - - 0.0
18/06:10am 10.5 9.6 7.7 83 1.4 NNW 2 2 1 1 - - 0.0
18/06:00am 10.6 9.2 7.4 80 1.6 NE 4 4 2 2 - - 0.0
18/05:50am 10.8 9.9 7.9 82 1.5 NNE 2 4 1 2 - - 0.0
18/05:40am 11.0 10.2 8.0 82 1.5 NNW 2 4 1 2 - - 0.0
18/05:30am 11.0 10.1 7.7 80 1.7 NNW 2 4 1 2 - - 0.0
18/05:20am 11.1 10.6 7.8 80 1.7 CALM 0 2 0 1 - - 0.0
18/05:10am 11.4 11.0 8.1 80 1.7 CALM 0 2 0 1 - - 0.0
18/05:00am 11.5 10.5 7.5 76 2.0 NNE 2 4 1 2 - - 0.0
18/04:50am 11.6 10.7 7.7 77 2.0 NE 2 4 1 2 - - 0.0
18/04:40am 11.8 11.0 8.1 78 1.9 NE 2 4 1 2 - - 0.0
18/04:30am 12.0 11.6 8.2 77 2.0 CALM 0 4 0 2 - - 0.0
18/04:20am 12.2 11.4 8.3 77 2.0 WNW 2 4 1 2 - - 0.0
18/04:10am 12.2 11.6 7.5 73 2.4 CALM 0 2 0 1 - - 0.0
18/04:00am 12.4 11.9 8.0 74 2.3 CALM 0 0 0 0 - - 0.0
18/03:50am 12.6 12.1 7.8 72 2.5 CALM 0 0 0 0 - - 0.0
18/03:40am 12.9 12.4 7.8 71 2.6 CALM 0 2 0 1 - - 0.0
18/03:30am 13.3 12.4 7.6 68 2.9 SSE 2 7 1 4 - - 0.0
18/03:20am 13.0 11.0 6.3 64 3.4 E 6 7 3 4 - - 0.0
18/03:10am 12.4 11.4 7.3 71 2.6 E 2 4 1 2 - - 0.0
18/03:00am 12.5 12.0 7.7 72 2.5 CALM 0 2 0 1 - - 0.0
18/02:50am 12.6 11.9 7.1 69 2.8 CALM 0 0 0 0 - - 0.0
18/02:40am 12.8 11.7 6.8 67 3.0 E 2 4 1 2 - - 0.0
18/02:30am 13.0 11.4 6.5 64 3.3 E 4 6 2 3 - - 0.0
18/02:20am 13.1 10.9 6.3 63 3.4 ENE 7 13 4 7 - - 0.0
18/02:10am 13.2 11.0 6.3 63 3.5 E 7 13 4 7 - - 0.0
18/02:00am 13.2 11.3 6.8 65 3.2 E 6 9 3 5 - - 0.0
18/01:50am 13.3 11.5 7.2 66 3.1 E 6 9 3 5 - - 0.0
18/01:40am 13.2 11.3 6.9 65 3.2 E 6 7 3 4 - - 0.0
18/01:30am 13.2 11.4 7.1 66 3.1 ESE 6 7 3 4 - - 0.0
18/01:20am 13.5 11.7 7.1 65 3.3 E 6 9 3 5 - - 0.0
18/01:10am 13.6 12.2 7.3 65 3.2 ESE 4 6 2 3 - - 0.0
18/01:00am 13.5 12.1 7.2 65 3.2 ESE 4 9 2 5 - - 0.0
18/12:50am 13.2 12.2 7.3 67 3.0 ESE 2 6 1 3 - - 0.0
18/12:40am 13.0 12.1 7.9 71 2.6 ENE 2 4 1 2 - - 0.0
18/12:30am 13.5 11.9 8.1 70 2.8 ENE 6 9 3 5 - - 0.0
18/12:20am 13.7 11.8 7.6 66 3.2 ENE 7 11 4 6 - - 0.0
18/12:10am 13.6 11.9 7.5 66 3.1 E 6 9 3 5 - - 0.0
18/12:00am 13.4 11.6 7.3 66 3.1 ENE 6 7 3 4 - - 0.0
 
Date/Time
EST
Temp
°C
App
Temp
°C
Dew
Point
°C
Rel
Hum
%
Delta-T
°C
Wind Press
QNH
hPa
Press
MSL
hPa
Rain since
9am
mm
Dir  Spd
km/h
Gust
km/h
Spd
kts
Gust
kts
17/11:50pm 13.5 11.9 7.9 69 2.9 ENE 6 9 3 5 - - 0.0
17/11:40pm 13.4 11.5 7.5 67 3.0 ENE 7 9 4 5 - - 0.0
17/11:30pm 13.5 11.9 7.8 68 3.0 ENE 6 7 3 4 - - 0.0
17/11:20pm 13.7 12.5 8.1 69 2.9 E 4 6 2 3 - - 0.0
17/11:10pm 13.9 12.7 8.2 68 3.0 ENE 4 9 2 5 - - 0.0
17/11:00pm 14.1 12.0 8.1 67 3.1 E 9 15 5 8 - - 0.0
17/10:50pm 14.3 12.2 8.2 67 3.2 E 9 11 5 6 - - 0.0
17/10:40pm 14.3 12.6 8.4 67 3.1 E 7 9 4 5 - - 0.0
17/10:30pm 14.4 11.9 8.3 67 3.2 E 11 13 6 7 - - 0.0
17/10:20pm 14.3 11.8 8.1 66 3.3 E 11 15 6 8 - - 0.0
17/10:10pm 14.2 11.7 8.1 66 3.2 E 11 15 6 8 - - 0.0
17/10:00pm 13.9 12.0 7.6 66 3.3 E 7 11 4 6 - - 0.0
17/09:50pm 13.5 12.3 7.9 69 2.9 ENE 4 7 2 4 - - 0.0
17/09:40pm 13.2 11.5 7.7 69 2.8 ENE 6 7 3 4 - - 0.0
17/09:30pm 13.0 11.1 7.7 70 2.7 ENE 7 11 4 6 - - 0.0
17/09:20pm 13.0 11.2 7.8 70 2.7 ENE 7 11 4 6 - - 0.0
17/09:10pm 13.0 10.9 8.4 73 2.4 E 9 11 5 6 - - 0.0
17/09:00pm 13.0 10.9 8.4 73 2.4 E 9 13 5 7 - - 0.0
17/08:50pm 13.1 10.6 8.4 73 2.5 E 11 13 6 7 - - 0.0
17/08:40pm 13.3 10.8 8.3 72 2.6 ENE 11 11 6 6 - - 0.0
17/08:30pm 13.5 11.3 8.0 69 2.9 ENE 9 9 5 5 - - 0.0
17/08:20pm 13.4 11.3 8.2 71 2.7 ENE 9 13 5 7 - - 0.0
17/08:10pm 13.3 11.5 8.1 71 2.7 E 7 9 4 5 - - 0.0
17/08:00pm 13.4 11.3 8.1 70 2.8 ENE 9 11 5 6 - - 0.0
17/07:50pm 13.4 11.3 8.2 71 2.7 ENE 9 11 5 6 - - 0.0
17/07:40pm 13.5 11.0 8.4 71 2.7 ENE 11 13 6 7 - - 0.0
17/07:30pm 13.6 11.5 8.3 70 2.8 E 9 11 5 6 - - 0.0
17/07:20pm 13.6 11.5 8.4 71 2.7 E 9 13 5 7 - - 0.0
17/07:10pm 13.8 11.8 8.5 70 2.8 E 9 13 5 7 - - 0.0
17/07:00pm 14.1 12.1 8.7 70 2.9 E 9 11 5 6 - - 0.0
17/06:50pm 14.0 11.7 8.9 71 2.7 E 11 13 6 7 - - 0.0
17/06:40pm 14.0 12.5 9.3 73 2.5 E 7 9 4 5 - - 0.0
17/06:30pm 14.2 12.8 9.4 73 2.6 E 7 11 4 6 - - 0.0
17/06:20pm 14.3 12.9 9.5 73 2.6 E 7 9 4 5 - - 0.0
17/06:10pm 14.5 12.7 9.6 72 2.7 ENE 9 11 5 6 - - 0.0
17/06:00pm 14.8 13.1 9.9 72 2.7 ENE 9 11 5 6 - - 0.0
17/05:50pm 15.1 13.1 10.1 72 2.7 ENE 11 13 6 7 - - 0.0
17/05:40pm 15.7 13.5 10.8 72 2.7 E 13 17 7 9 - - 0.0
17/05:30pm 16.4 14.5 11.9 75 2.6 E 13 15 7 8 - - 0.0
17/05:20pm 16.7 15.1 12.7 77 2.3 E 13 15 7 8 - - 0.0
17/05:10pm 16.8 15.2 12.9 78 2.3 ENE 13 17 7 9 - - 0.0
17/05:00pm 17.3 17.2 13.9 80 2.0 ESE 7 9 4 5 - - 0.0
17/04:50pm 17.5 17.6 13.9 79 2.1 ESE 6 9 3 5 - - 0.0
17/04:40pm 17.5 17.4 13.8 79 2.2 ESE 7 11 4 6 - - 0.0
17/04:30pm 17.8 17.3 13.7 77 2.4 ESE 9 9 5 5 - - 0.0
17/04:20pm 18.2 17.6 13.6 74 2.7 ESE 9 13 5 7 - - 0.0
17/04:10pm 18.5 18.3 13.7 73 2.9 ESE 7 11 4 6 - - 0.0
17/04:00pm 18.6 17.7 13.6 72 3.0 E 11 15 6 8 - - 0.0
17/03:50pm 19.2 17.5 13.7 70 3.3 E 15 19 8 10 - - 0.0
17/03:40pm 20.1 19.7 14.0 68 3.7 ESE 9 13 5 7 - - 0.0
17/03:30pm 20.4 20.2 13.6 65 4.1 ESE 7 13 4 7 - - 0.0
17/03:20pm 20.1 19.5 13.6 66 3.9 ESE 9 17 5 9 - - 0.0
17/03:10pm 20.6 20.1 13.9 65 4.0 E 9 13 5 7 - - 0.0
17/03:00pm 20.9 20.3 13.5 62 4.4 ESE 9 15 5 8 - - 0.0
17/02:50pm 20.7 20.6 13.8 64 4.2 E 7 13 4 7 - - 0.0
17/02:40pm 21.0 19.9 13.0 60 4.8 E 11 15 6 8 - - 0.0
17/02:30pm 21.3 20.3 13.4 60 4.7 E 11 15 6 8 - - 0.0
17/02:20pm 21.1 19.5 12.8 59 4.9 E 13 17 7 9 - - 0.0
17/02:10pm 21.5 20.9 13.5 60 4.8 E 9 11 5 6 - - 0.0
17/02:00pm 21.0 20.4 13.4 62 4.5 E 9 13 5 7 - - 0.0
17/01:50pm 21.4 20.9 12.8 58 5.1 ESE 7 9 4 5 - - 0.0
17/01:40pm 21.2 20.3 12.7 58 5.0 E 9 13 5 7 - - 0.0
17/01:30pm 20.9 19.2 12.3 58 5.0 E 13 17 7 9 - - 0.0
17/01:20pm 21.1 19.9 12.9 59 4.9 ENE 11 15 6 8 - - 0.0
17/01:10pm 21.3 20.8 12.6 57 5.1 SE 7 9 4 5 - - 0.0
17/01:00pm 20.9 20.6 13.2 61 4.6 ESE 7 11 4 6 - - 0.0
17/12:50pm 20.8 20.0 12.8 60 4.7 ESE 9 11 5 6 - - 0.0
17/12:40pm 20.4 19.2 12.9 62 4.4 E 11 15 6 8 - - 0.0
17/12:30pm 20.2 19.2 13.5 65 4.0 E 11 15 6 8 - - 0.0
17/12:20pm 19.8 18.3 13.1 65 4.0 E 13 15 7 8 - - 0.0
17/12:10pm 19.7 18.5 12.9 65 4.0 ENE 11 15 6 8 - - 0.0
17/12:00pm 19.4 17.4 12.7 65 3.9 ENE 15 17 8 9 - - 0.0
17/11:50am 20.0 17.9 13.7 67 3.8 E 17 19 9 10 - - 0.0
17/11:40am 20.5 20.2 13.2 63 4.3 E 7 11 4 6 - - 0.0
17/11:30am 19.2 18.5 13.3 68 3.5 ESE 9 13 5 7 - - 0.0
17/11:20am 19.2 18.5 13.2 68 3.6 ESE 9 13 5 7 - - 0.0
17/11:10am 19.6 19.0 13.4 67 3.7 ESE 9 13 5 7 - - 0.0
17/11:00am 19.1 18.1 13.3 69 3.4 E 11 15 6 8 - - 0.0
17/10:50am 19.0 18.0 13.4 70 3.3 ENE 11 15 6 8 - - 0.0
17/10:40am 19.0 17.9 13.2 69 3.4 E 11 15 6 8 - - 0.0
17/10:30am 18.8 18.7 13.8 72 3.0 SE 7 11 4 6 - - 0.0
17/10:20am 19.3 19.1 13.6 69 3.4 SE 7 11 4 6 - - 0.0
17/10:10am 18.9 18.8 13.2 69 3.4 ESE 6 7 3 4 - - 0.0
17/10:00am 18.4 18.4 13.5 73 2.9 SE 6 9 3 5 - - 0.0
17/09:50am 18.0 17.4 13.6 75 2.6 SE 9 15 5 8 - - 0.0
17/09:40am 18.1 17.4 13.1 72 2.9 ESE 9 13 5 7 - - 0.0
17/09:30am 17.5 17.2 13.3 76 2.5 E 7 9 4 5 - - 0.0
17/09:20am 16.6 15.9 13.2 80 2.0 E 9 13 5 7 - - 0.0
17/09:10am 16.5 15.8 13.1 80 2.0 ESE 9 11 5 6 - - 0.0
17/09:00am 16.2 14.7 13.0 81 1.9 E 13 19 7 10 - - 0.0
17/08:50am 16.4 15.4 13.3 82 1.8 E 11 13 6 7 - - 0.0
17/08:40am 16.5 15.9 13.4 82 1.8 E 9 13 5 7 - - 0.0
17/08:30am 15.8 15.5 13.3 85 1.5 ESE 7 11 4 6 - - 0.0
17/08:20am 15.3 15.0 13.2 87 1.2 E 7 11 4 6 - - 0.0
17/08:10am 15.1 14.8 13.4 89 1.0 ESE 7 11 4 6 - - 0.0
17/08:00am 15.0 14.0 13.3 89 1.0 E 11 15 6 8 - - 0.0
17/07:50am 14.8 14.1 13.3 91 0.9 E 9 11 5 6 - - 0.0
17/07:40am 14.6 14.3 13.2 91 0.8 ESE 7 13 4 7 - - 0.0
17/07:30am 14.2 14.0 13.1 93 0.6 E 6 7 3 4 - - 0.0
17/07:20am 14.0 13.2 12.9 93 0.6 E 9 13 5 7 - - 0.0
17/07:10am 13.2 13.2 12.3 94 0.5 SE 4 11 2 6 - - 0.0
17/07:00am 12.9 12.9 11.1 89 1.0 SSW 2 4 1 2 - - 0.0
17/06:50am 13.3 13.4 11.5 89 1.0 E 2 6 1 3 - - 0.0
17/06:40am 13.6 13.6 11.1 85 1.4 ESE 2 6 1 3 - - 0.0
17/06:30am 13.9 13.1 11.0 83 1.6 E 6 9 3 5 - - 0.0
17/06:20am 13.8 12.8 10.9 83 1.6 ENE 7 9 4 5 - - 0.0
17/06:10am 13.5 12.5 10.9 84 1.4 ENE 7 7 4 4 - - 0.0
17/06:00am 13.6 12.6 10.9 84 1.5 ENE 7 9 4 5 - - 0.0
17/05:50am 13.9 12.9 11.0 83 1.6 E 7 9 4 5 - - 0.0
17/05:40am 14.0 12.6 11.0 82 1.7 E 9 11 5 6 - - 0.0
17/05:30am 13.9 12.4 10.7 81 1.8 E 9 11 5 6 - - 0.0
17/05:20am 14.0 13.1 10.7 80 1.8 E 6 7 3 4 - - 0.0
17/05:10am 14.2 13.3 10.7 79 1.9 E 6 9 3 5 - - 0.0
17/05:00am 14.4 13.5 10.7 78 2.0 E 6 7 3 4 - - 0.0
17/04:50am 14.5 13.7 10.9 79 2.0 E 6 9 3 5 - - 0.0
17/04:40am 14.3 13.4 10.8 79 1.9 E 6 11 3 6 - - 0.0
17/04:30am 14.4 13.3 10.7 78 2.0 E 7 9 4 5 - - 0.0
17/04:20am 14.3 13.2 10.7 79 2.0 E 7 11 4 6 - - 0.0
17/04:10am 14.2 12.4 11.0 81 1.8 ENE 11 13 6 7 - - 0.0
17/04:00am 14.1 11.9 10.8 80 1.8 ENE 13 15 7 8 - - 0.0
17/03:50am 14.2 12.4 10.7 79 1.9 ENE 11 15 6 8 - - 0.0
17/03:40am 14.3 12.3 10.3 77 2.2 ENE 11 17 6 9 - - 0.0
17/03:30am 14.6 12.5 9.7 72 2.7 E 11 17 6 9 - - 0.0
17/03:20am 14.4 12.6 9.5 72 2.6 ENE 9 15 5 8 - - 0.0
17/03:10am 14.3 12.9 8.8 69 2.9 E 6 7 3 4 - - 0.0
17/03:00am 14.2 12.8 8.8 70 2.9 ENE 6 9 3 5 - - 0.0
17/02:50am 14.2 13.1 8.5 68 3.0 ENE 4 7 2 4 - - 0.0
17/02:40am 14.1 12.6 8.6 69 2.9 ENE 6 9 3 5 - - 0.0
17/02:30am 13.7 12.6 8.5 71 2.7 NE 4 6 2 3 - - 0.0
17/02:20am 13.6 12.6 9.0 74 2.4 ENE 4 4 2 2 - - 0.0
17/02:10am 13.3 12.3 9.0 75 2.3 ENE 4 6 2 3 - - 0.0
17/02:00am 13.3 12.4 9.4 77 2.1 ENE 4 6 2 3 - - 0.0
17/01:50am 13.5 12.3 9.6 77 2.1 NE 6 6 3 3 - - 0.0
17/01:40am 13.8 12.5 9.2 74 2.5 ENE 6 7 3 4 - - 0.0
17/01:30am 13.3 12.0 9.1 76 2.2 ENE 6 7 3 4 - - 0.0
17/01:20am 12.8 11.4 9.0 78 2.0 ENE 6 7 3 4 - - 0.0
17/01:00am 12.2 10.9 9.3 82 1.5 NE 6 7 3 4 - - 0.0
17/12:50am 13.5 12.1 9.6 77 2.1 ENE 7 7 4 4 - - 0.0
17/12:40am 14.2 12.7 9.1 71 2.7 E 7 9 4 5 - - 0.0
17/12:30am 13.8 12.3 9.0 73 2.6 ENE 7 9 4 5 - - 0.0
17/12:20am 14.6 12.8 9.4 71 2.8 ENE 9 11 5 6 - - 0.0
17/12:10am 15.0 12.3 9.1 68 3.2 E 13 15 7 8 - - 0.0
17/12:00am 15.0 12.3 9.0 67 3.2 E 13 17 7 9 - - 0.0
 
Date/Time
EST
Temp
°C
App
Temp
°C
Dew
Point
°C
Rel
Hum
%
Delta-T
°C
Wind Press
QNH
hPa
Press
MSL
hPa
Rain since
9am
mm
Dir  Spd
km/h
Gust
km/h
Spd
kts
Gust
kts
16/11:50pm 15.0 12.4 9.2 68 3.1 E 13 15 7 8 - - 0.0
16/11:40pm 15.2 12.6 9.4 68 3.1 E 13 17 7 9 - - 0.0
16/11:30pm 14.9 12.8 9.6 70 2.9 ENE 11 13 6 7 - - 0.0
16/11:20pm 14.8 13.5 9.9 72 2.7 ENE 7 9 4 5 - - 0.0
16/11:10pm 14.8 13.5 9.9 72 2.7 ENE 7 9 4 5 - - 0.0
16/11:00pm 14.9 13.6 10.0 72 2.7 ENE 7 9 4 5 - - 0.0
16/10:50pm 15.1 14.0 10.5 74 2.5 ENE 7 9 4 5 - - 0.0
16/10:40pm 15.2 14.2 10.9 75 2.4 ENE 7 11 4 6 - - 0.0
16/10:30pm 15.4 13.7 11.1 75 2.4 E 11 13 6 7 - - 0.0
16/10:20pm 15.2 14.0 11.5 78 2.1 ENE 9 13 5 7 - - 0.0
16/10:10pm 15.1 14.4 11.9 81 1.8 ENE 7 11 4 6 - - 0.0
16/10:00pm 14.8 14.1 12.0 83 1.6 ENE 7 9 4 5 - - 0.0
16/09:50pm 14.7 14.0 12.0 84 1.5 NE 7 9 4 5 - - 0.0
16/09:40pm 14.9 13.8 11.9 82 1.7 ENE 9 11 5 6 - - 0.0
16/09:30pm 14.6 13.9 12.1 85 1.4 ENE 7 9 4 5 - - 0.0
16/09:20pm 14.1 13.7 12.3 89 1.0 ENE 6 9 3 5 - - 0.0
16/09:10pm 14.1 14.6 12.9 92 0.7 ENE 2 6 1 3 - - 0.0
16/09:00pm 14.4 15.0 13.2 92 0.7 ENE 2 4 1 2 - - 0.0
16/08:50pm 14.9 15.6 13.5 91 0.8 NE 2 4 1 2 - - 0.0
16/08:40pm 15.1 16.3 13.7 91 0.8 CALM 0 0 0 0 - - 0.0
16/08:30pm 15.3 16.1 13.8 91 0.9 SSW 2 4 1 2 - - 0.0
16/08:20pm 15.3 15.7 13.8 91 0.9 E 4 6 2 3 - - 0.0
16/08:10pm 15.4 15.5 13.9 91 0.9 E 6 7 3 4 - - 0.0
16/08:00pm 15.5 16.4 13.9 90 0.9 ENE 2 4 1 2 - - 0.0
16/07:50pm 15.7 15.8 14.0 90 1.0 ESE 6 9 3 5 - - 0.0
16/07:40pm 15.7 15.8 14.0 90 1.0 ESE 6 11 3 6 - - 0.0
16/07:30pm 15.8 15.7 13.9 88 1.1 E 7 9 4 5 - - 0.0
16/07:20pm 15.8 15.7 14.0 89 1.1 E 7 9 4 5 - - 0.0
16/07:10pm 15.9 16.5 14.2 90 1.0 E 4 7 2 4 - - 0.0
16/07:00pm 16.0 17.0 14.2 89 1.1 ESE 2 6 1 3 - - 0.0
16/06:50pm 16.1 16.7 14.2 88 1.1 ESE 4 7 2 4 - - 0.0
16/06:40pm 16.0 16.2 14.2 89 1.1 E 6 7 3 4 - - 0.0
16/06:30pm 15.9 15.9 14.2 90 1.0 E 7 7 4 4 - - 0.0
16/06:20pm 16.1 16.7 14.2 88 1.1 ESE 4 6 2 3 - - 0.0
16/06:10pm 16.2 16.2 14.2 88 1.2 E 7 11 4 6 - - 0.0
16/06:00pm 16.6 16.6 14.3 86 1.4 E 7 13 4 7 - - 0.0
16/05:50pm 16.8 16.9 14.5 86 1.4 E 7 9 4 5 - - 0.0
16/05:40pm 16.9 17.6 14.4 85 1.5 SE 4 6 2 3 - - 0.0
16/05:30pm 17.1 17.4 14.4 84 1.6 E 6 7 3 4 - - 0.0
16/05:20pm 17.5 17.8 14.4 82 1.9 E 6 9 3 5 - - 0.0
16/05:00pm 18.4 18.7 14.9 80 2.1 E 7 9 4 5 - - 0.0
16/04:50pm 18.4 18.2 14.7 79 2.2 E 9 11 5 6 - - 0.0
16/04:40pm 19.3 19.4 14.5 74 2.9 E 7 11 4 6 - - 0.0
16/04:30pm 18.9 18.7 14.7 76 2.5 E 9 11 5 6 - - 0.0
16/04:20pm 20.0 19.7 14.4 70 3.4 ESE 9 15 5 8 - - 0.0
16/04:10pm 19.2 19.5 14.4 74 2.9 ESE 6 7 3 4 - - 0.0
16/04:00pm 19.2 18.5 14.4 74 2.9 E 11 17 6 9 - - 0.0
16/03:50pm 20.1 19.8 14.4 69 3.5 E 9 13 5 7 - - 0.0
16/03:40pm 19.7 19.3 14.1 70 3.4 E 9 11 5 6 - - 0.0
16/03:30pm 20.0 20.1 14.4 70 3.4 SE 7 11 4 6 - - 0.0
16/03:20pm 20.6 20.6 14.2 66 3.9 SE 7 11 4 6 - - 0.0
16/03:00pm 20.4 19.5 13.7 65 4.0 ENE 11 13 6 7 - - 0.0

Other Formats:

Comma delimited format used in spreadsheet applications
http://www.bom.gov.au/fwo/IDQ60801/IDQ60801.99124.axf

JavaScript Object Notation format (JSON) in row-major order
http://www.bom.gov.au/fwo/IDQ60801/IDQ60801.99124.json